Time;durP1;ratioP1;P1;durP2;ratioP2;P2;SDS_P1;SDS_P2;PMS_P1;PMS_P2;Temp;Humidity;BMP_temperature;BMP_pressure;BME280_temperature;BME280_humidity;BME280_pressure;Samples;Min_cycle;Max_cycle;Signal;HPM_P1;HPM_P2
2022/05/13 00:00:07;;;;;;;23.40;3.78;;;13.40;99.90;;;;;;5038090;28;20090;-83
2022/05/13 00:02:33;;;;;;;20.27;3.45;;;13.30;99.90;;;;;;5053538;28;20052;-82
2022/05/13 00:04:58;;;;;;;29.42;4.65;;;13.40;99.90;;;;;;5054811;28;20029;-82
2022/05/13 00:07:24;;;;;;;26.73;4.53;;;13.30;99.90;;;;;;5044711;28;20026;-81
2022/05/13 00:10:05;;;;;;;23.85;3.78;;;13.30;99.90;;;;;;5048299;28;20033;-82
2022/05/13 00:12:35;;;;;;;25.75;4.65;;;13.30;99.90;;;;;;5054498;28;20089;-81
2022/05/13 00:15:04;;;;;;;24.65;3.85;;;13.30;99.90;;;;;;5038908;28;20025;-82
2022/05/13 00:17:29;;;;;;;24.75;4.28;;;13.30;99.90;;;;;;5045720;28;20148;-83
2022/05/13 00:19:55;;;;;;;23.40;3.97;;;13.30;99.90;;;;;;5052632;28;20014;-82
2022/05/13 00:22:21;;;;;;;21.67;4.93;;;13.30;99.90;;;;;;5045688;28;20028;-82
2022/05/13 00:24:46;;;;;;;21.23;4.10;;;13.30;99.90;;;;;;5057826;28;20046;-81
2022/05/13 00:27:12;;;;;;;31.42;4.70;;;13.30;99.90;;;;;;5049504;28;20064;-82
2022/05/13 00:29:38;;;;;;;27.15;4.88;;;13.30;99.90;;;;;;5051946;28;20026;-80
2022/05/13 00:32:05;;;;;;;30.58;5.32;;;13.30;99.90;;;;;;5041139;28;20037;-81
2022/05/13 00:34:32;;;;;;;28.92;4.82;;;13.40;99.90;;;;;;5055142;28;20320;-81
2022/05/13 00:36:58;;;;;;;27.08;5.00;;;13.40;99.90;;;;;;5055671;28;20104;-82
2022/05/13 00:39:23;;;;;;;30.73;4.63;;;13.40;99.90;;;;;;5056020;28;20018;-82
2022/05/13 00:41:49;;;;;;;29.33;4.80;;;13.40;99.90;;;;;;5041405;28;20034;-81
2022/05/13 00:44:15;;;;;;;29.42;5.30;;;13.40;99.90;;;;;;5035038;28;20022;-80
2022/05/13 00:46:40;;;;;;;34.72;5.55;;;13.40;99.90;;;;;;5035952;28;20033;-80
2022/05/13 00:49:09;;;;;;;33.05;6.00;;;13.40;99.90;;;;;;5033021;28;20045;-81
2022/05/13 00:51:42;;;;;;;35.60;6.07;;;13.40;99.90;;;;;;5032652;28;20030;-82
2022/05/13 00:54:11;;;;;;;31.90;5.22;;;13.40;99.90;;;;;;5032147;28;20077;-82
2022/05/13 00:56:37;;;;;;;31.10;5.10;;;13.50;99.90;;;;;;5046587;28;20163;-81
2022/05/13 00:59:06;;;;;;;30.88;5.30;;;13.50;99.90;;;;;;5053742;28;20097;-82
2022/05/13 01:01:33;;;;;;;29.50;4.95;;;13.50;99.90;;;;;;5044819;28;20026;-82
2022/05/13 01:04:03;;;;;;;38.03;5.18;;;13.50;99.90;;;;;;5033920;28;20029;-82
2022/05/13 01:06:29;;;;;;;31.40;5.30;;;13.50;99.90;;;;;;5033327;28;20097;-83
2022/05/13 01:08:56;;;;;;;27.05;4.93;;;13.50;99.90;;;;;;5032305;28;20038;-82
2022/05/13 01:11:26;;;;;;;31.92;5.38;;;13.50;99.90;;;;;;5045340;28;20018;-81
2022/05/13 01:14:04;;;;;;;30.95;5.25;;;13.50;99.90;;;;;;5051087;28;20037;-80
2022/05/13 01:18:04;;;;;;;34.03;4.88;;;13.60;99.90;;;;;;5049496;28;20037;-80
2022/05/13 01:19:15;;;;;;;;;;;13.60;99.90;;;;;;5051090;28;20460;-81
2022/05/13 01:21:41;;;;;;;23.08;4.18;;;13.60;99.90;;;;;;5048108;28;20015;-82
2022/05/13 01:24:06;;;;;;;24.17;4.32;;;13.60;99.90;;;;;;5051010;28;20493;-82
2022/05/13 01:26:35;;;;;;;20.30;3.95;;;13.60;99.90;;;;;;5046867;28;20033;-83
2022/05/13 01:29:02;;;;;;;25.17;4.28;;;13.60;99.90;;;;;;5050722;28;20052;-81
2022/05/13 01:31:34;;;;;;;26.10;4.13;;;13.70;99.90;;;;;;5042801;28;20036;-81
2022/05/13 01:34:02;;;;;;;23.20;3.67;;;13.70;99.90;;;;;;5030091;28;20135;-81
2022/05/13 01:36:29;;;;;;;27.02;4.55;;;13.70;99.90;;;;;;5048787;28;20125;-82
2022/05/13 01:38:55;;;;;;;21.10;3.75;;;13.70;99.90;;;;;;5043504;28;20049;-82
2022/05/13 01:41:21;;;;;;;29.17;4.68;;;13.80;99.90;;;;;;5040826;28;20032;-81
2022/05/13 01:43:49;;;;;;;18.52;4.18;;;13.80;99.90;;;;;;5050537;28;20029;-82
2022/05/13 01:46:15;;;;;;;20.35;4.05;;;13.80;99.90;;;;;;5046664;28;20465;-82
2022/05/13 01:48:41;;;;;;;21.55;3.95;;;13.80;99.90;;;;;;5050422;28;20013;-82
2022/05/13 01:51:07;;;;;;;25.35;3.90;;;13.80;99.90;;;;;;5044893;28;20032;-82
2022/05/13 01:53:33;;;;;;;19.58;3.78;;;13.80;99.90;;;;;;5051694;28;20009;-82
2022/05/13 01:55:59;;;;;;;18.10;3.80;;;13.80;99.90;;;;;;5033305;28;20132;-81
2022/05/13 01:58:25;;;;;;;14.38;3.30;;;13.80;99.90;;;;;;5027830;28;20498;-82
2022/05/13 02:00:54;;;;;;;22.30;3.90;;;13.80;99.90;;;;;;5029900;28;20033;-81
2022/05/13 02:06:05;;;;;;;16.15;3.30;;;13.80;99.90;;;;;;5037417;28;20036;-82
2022/05/13 02:08:32;;;;;;;18.17;3.90;;;13.80;99.90;;;;;;5048900;28;20021;-80
2022/05/13 02:10:58;;;;;;;13.18;2.78;;;13.80;99.90;;;;;;5048232;28;20073;-80
2022/05/13 02:13:24;;;;;;;17.02;2.97;;;13.80;99.90;;;;;;5040694;28;20029;-82
2022/05/13 02:15:52;;;;;;;14.20;2.70;;;13.80;99.90;;;;;;5039703;28;20030;-82
2022/05/13 02:18:18;;;;;;;14.00;3.25;;;13.70;99.90;;;;;;5050623;28;20053;-82
2022/05/13 02:20:44;;;;;;;22.17;3.53;;;13.80;99.90;;;;;;5049115;28;20044;-81
2022/05/13 02:23:10;;;;;;;14.55;3.03;;;13.70;99.90;;;;;;5046606;28;20021;-82
2022/05/13 02:25:35;;;;;;;17.92;3.17;;;13.70;99.90;;;;;;5047313;28;20390;-84
2022/05/13 02:28:03;;;;;;;17.35;3.13;;;13.70;99.90;;;;;;5045952;28;20029;-81
2022/05/13 02:30:29;;;;;;;13.18;3.20;;;13.70;99.90;;;;;;5042106;28;20049;-81
2022/05/13 02:32:55;;;;;;;17.42;3.20;;;13.70;99.90;;;;;;5034231;28;20034;-82
2022/05/13 02:35:21;;;;;;;16.85;3.35;;;13.70;99.90;;;;;;5036507;28;20417;-80
2022/05/13 02:37:47;;;;;;;12.80;2.45;;;13.60;99.90;;;;;;5046707;28;20041;-81
2022/05/13 02:40:13;;;;;;;19.50;3.70;;;13.60;99.90;;;;;;5036026;28;20065;-81
2022/05/13 02:42:39;;;;;;;20.98;3.60;;;13.60;99.90;;;;;;5045066;28;20217;-81
2022/05/13 02:45:09;;;;;;;18.92;3.47;;;13.50;99.90;;;;;;5038047;28;20060;-81
2022/05/13 02:47:38;;;;;;;14.90;3.38;;;13.50;99.90;;;;;;5041418;28;20030;-81
2022/05/13 02:50:17;;;;;;;15.60;3.00;;;13.50;99.90;;;;;;5054156;28;20040;-81
2022/05/13 02:52:43;;;;;;;20.20;3.17;;;13.50;99.90;;;;;;5046152;28;20087;-81
2022/05/13 02:55:09;;;;;;;15.93;3.47;;;13.50;99.90;;;;;;5042649;28;20032;-81
2022/05/13 02:57:35;;;;;;;11.07;2.83;;;13.40;99.90;;;;;;5035187;28;20034;-81
2022/05/13 03:00:02;;;;;;;13.52;3.10;;;13.40;99.90;;;;;;5047517;28;20026;-81
2022/05/13 03:02:27;;;;;;;16.23;3.47;;;13.40;99.90;;;;;;5041733;28;20052;-81
2022/05/13 03:04:53;;;;;;;13.15;3.60;;;13.40;99.90;;;;;;5056664;28;20085;-81
2022/05/13 03:07:18;;;;;;;17.95;3.67;;;13.30;99.90;;;;;;5042715;28;20040;-81
2022/05/13 03:09:44;;;;;;;10.07;3.38;;;13.30;99.90;;;;;;5040464;28;20060;-81
2022/05/13 03:12:11;;;;;;;15.15;3.20;;;13.30;99.90;;;;;;5042005;28;20417;-81
2022/05/13 03:14:37;;;;;;;18.00;3.00;;;13.30;99.90;;;;;;5041845;28;20010;-81
2022/05/13 03:17:04;;;;;;;13.05;3.00;;;13.20;99.90;;;;;;5043566;28;20013;-81
2022/05/13 03:19:30;;;;;;;15.00;3.60;;;13.20;99.90;;;;;;5054302;28;20033;-81
2022/05/13 03:21:56;;;;;;;14.32;3.03;;;13.20;99.90;;;;;;5051927;28;20024;-81
2022/05/13 03:24:22;;;;;;;13.30;3.50;;;13.10;99.90;;;;;;5052370;28;20049;-81
2022/05/13 03:26:47;;;;;;;16.35;3.05;;;13.20;99.90;;;;;;5051451;28;20025;-81
2022/05/13 03:29:13;;;;;;;21.90;3.70;;;13.10;99.90;;;;;;5052025;28;20037;-81
2022/05/13 03:31:38;;;;;;;17.40;3.55;;;13.20;99.90;;;;;;5050326;28;20596;-81
2022/05/13 03:34:04;;;;;;;14.43;3.10;;;13.20;99.90;;;;;;5052960;28;20029;-82
2022/05/13 03:36:31;;;;;;;13.55;3.85;;;13.10;99.90;;;;;;5052535;28;20152;-82
2022/05/13 03:39:02;;;;;;;23.00;4.03;;;13.20;99.90;;;;;;5048999;28;20034;-81
2022/05/13 03:41:27;;;;;;;10.20;2.67;;;13.20;99.90;;;;;;5051968;28;20033;-82
2022/05/13 03:43:53;;;;;;;19.27;3.67;;;13.20;99.90;;;;;;5050255;28;20060;-81
2022/05/13 03:46:18;;;;;;;12.20;2.55;;;13.20;99.90;;;;;;5041076;28;20026;-81
2022/05/13 03:48:44;;;;;;;11.30;2.58;;;13.20;99.90;;;;;;5030286;28;20084;-82
2022/05/13 03:51:09;;;;;;;16.52;3.10;;;13.20;99.90;;;;;;5025347;28;20049;-81
2022/05/13 03:53:35;;;;;;;17.45;3.22;;;13.20;99.90;;;;;;5027850;28;20442;-82
2022/05/13 03:56:01;;;;;;;15.02;3.45;;;13.30;99.90;;;;;;5029679;28;20019;-81
2022/05/13 03:58:26;;;;;;;11.52;2.65;;;13.30;99.90;;;;;;5028026;28;20049;-82
2022/05/13 04:00:52;;;;;;;14.00;3.03;;;13.30;99.90;;;;;;5031468;28;20118;-82
2022/05/13 04:03:19;;;;;;;9.63;2.88;;;13.30;99.90;;;;;;5043475;28;20360;-82
2022/05/13 04:11:14;;;;;;;15.55;3.40;;;13.30;99.90;;;;;;5049030;28;20056;-82
2022/05/13 04:16:23;;;;;;;18.90;3.35;;;13.20;99.90;;;;;;5039594;28;20163;-81
2022/05/13 04:18:53;;;;;;;14.68;3.35;;;13.20;99.90;;;;;;5030635;28;20088;-81
2022/05/13 04:21:38;;;;;;;17.40;3.20;;;13.10;99.90;;;;;;5023448;28;20026;-80
2022/05/13 04:24:08;;;;;;;18.88;3.28;;;13.10;99.90;;;;;;5020094;28;20401;-80
2022/05/13 04:26:33;;;;;;;17.63;3.00;;;13.10;99.90;;;;;;5015151;28;20041;-80
2022/05/13 04:29:00;;;;;;;12.70;3.15;;;13.10;99.90;;;;;;5023410;28;20025;-80
2022/05/13 04:31:29;;;;;;;16.48;3.15;;;13.10;99.90;;;;;;5027834;28;20362;-80
2022/05/13 04:33:55;;;;;;;15.52;2.90;;;13.10;99.90;;;;;;5032166;28;20488;-80
2022/05/13 04:36:21;;;;;;;13.88;3.15;;;13.10;99.90;;;;;;5040330;28;20053;-80
2022/05/13 04:38:48;;;;;;;17.05;3.28;;;13.10;99.90;;;;;;5034616;28;20122;-80
2022/05/13 04:43:59;;;;;;;14.63;3.08;;;13.10;99.90;;;;;;5045206;28;20276;-80
2022/05/13 04:46:25;;;;;;;19.75;3.53;;;13.10;99.90;;;;;;5042623;28;20029;-80
2022/05/13 04:48:53;;;;;;;9.70;2.80;;;13.20;99.90;;;;;;5047523;28;20018;-80
2022/05/13 04:51:19;;;;;;;16.42;3.20;;;13.20;99.90;;;;;;5039193;28;20025;-80
2022/05/13 04:53:47;;;;;;;17.48;2.72;;;13.20;99.90;;;;;;5043844;28;20096;-80
2022/05/13 04:56:12;;;;;;;19.65;2.88;;;13.30;99.90;;;;;;5036688;28;20029;-80
2022/05/13 04:58:39;;;;;;;12.75;2.53;;;13.30;99.90;;;;;;5039977;28;20021;-80
2022/05/13 05:01:07;;;;;;;11.07;2.63;;;13.40;99.90;;;;;;5037342;28;20132;-80
2022/05/13 05:03:35;;;;;;;11.57;2.58;;;13.40;99.90;;;;;;5020618;28;20029;-80
2022/05/13 05:06:02;;;;;;;11.40;2.17;;;13.50;99.90;;;;;;5039603;28;20089;-80
2022/05/13 05:08:28;;;;;;;18.35;2.90;;;13.50;99.90;;;;;;5032637;28;20056;-78
2022/05/13 05:10:55;;;;;;;13.93;2.35;;;13.60;99.90;;;;;;5053123;28;20040;-78
2022/05/13 05:13:24;;;;;;;10.60;2.30;;;13.60;99.90;;;;;;5040189;28;20040;-79
2022/05/13 05:15:50;;;;;;;12.48;2.13;;;13.60;99.90;;;;;;5039712;28;20032;-79
2022/05/13 05:18:17;;;;;;;11.55;2.05;;;13.70;99.90;;;;;;5036975;28;20014;-76
2022/05/13 05:20:43;;;;;;;11.70;2.50;;;13.70;99.90;;;;;;5039565;28;20197;-78
2022/05/13 05:23:18;;;;;;;12.85;2.33;;;13.80;99.90;;;;;;5038604;28;20026;-78
2022/05/13 05:25:45;;;;;;;12.70;2.78;;;13.80;99.90;;;;;;5038141;28;20065;-78
2022/05/13 05:28:11;;;;;;;9.73;2.35;;;13.80;99.90;;;;;;5038926;28;20010;-79
2022/05/13 05:30:37;;;;;;;12.50;2.30;;;13.80;99.90;;;;;;5036146;28;20018;-79
2022/05/13 05:33:03;;;;;;;12.27;2.38;;;13.80;99.90;;;;;;5015207;28;20481;-78
2022/05/13 05:35:29;;;;;;;10.38;1.98;;;13.90;99.90;;;;;;5014566;28;20048;-77
2022/05/13 05:37:54;;;;;;;11.50;2.00;;;13.90;99.90;;;;;;5011744;28;20025;-77
2022/05/13 05:40:21;;;;;;;9.50;2.08;;;13.90;99.90;;;;;;5015046;28;20034;-78
2022/05/13 05:42:48;;;;;;;8.57;1.88;;;14.00;99.90;;;;;;5042770;28;20037;-78
2022/05/13 05:45:16;;;;;;;11.75;2.20;;;14.00;99.90;;;;;;5027099;28;20021;-78
2022/05/13 05:47:42;;;;;;;12.38;2.28;;;14.10;99.90;;;;;;5022120;28;20033;-79
2022/05/13 05:50:10;;;;;;;8.40;2.13;;;14.10;99.90;;;;;;5049411;28;20013;-79
2022/05/13 05:52:36;;;;;;;8.25;1.92;;;14.10;99.90;;;;;;5055865;28;20017;-79
2022/05/13 05:58:11;;;;;;;7.38;1.70;;;14.20;99.90;;;;;;5056714;28;20073;-80
2022/05/13 06:00:42;;;;;;;7.88;1.77;;;14.30;99.90;;;;;;5050653;28;20060;-79
2022/05/13 06:03:08;;;;;;;12.05;2.10;;;14.30;99.90;;;;;;5054719;28;20071;-80
2022/05/13 06:05:34;;;;;;;12.57;2.38;;;14.30;99.90;;;;;;5036304;28;20032;-80
2022/05/13 06:08:01;;;;;;;10.63;2.13;;;14.30;99.90;;;;;;5035875;28;20034;-81
2022/05/13 06:10:28;;;;;;;10.48;2.63;;;14.30;99.90;;;;;;5036408;28;20063;-81
2022/05/13 06:12:55;;;;;;;14.82;2.17;;;14.30;99.90;;;;;;5036363;28;20014;-80
2022/05/13 06:15:21;;;;;;;14.77;2.38;;;14.30;99.90;;;;;;5023845;28;20034;-79
2022/05/13 06:17:51;;;;;;;14.80;2.35;;;14.40;99.90;;;;;;5036651;28;20048;-80
2022/05/13 06:20:20;;;;;;;12.32;2.08;;;14.40;99.90;;;;;;5050347;28;20020;-80
2022/05/13 06:22:45;;;;;;;12.55;1.80;;;14.40;99.90;;;;;;5051611;28;20104;-79
2022/05/13 06:25:14;;;;;;;9.32;1.80;;;14.30;99.90;;;;;;5040379;28;20042;-80
2022/05/13 06:27:40;;;;;;;6.93;1.95;;;14.30;99.90;;;;;;5036556;28;20041;-80
2022/05/13 06:30:12;;;;;;;11.02;2.10;;;14.30;99.90;;;;;;5036810;28;20014;-81
2022/05/13 06:32:38;;;;;;;12.50;2.10;;;14.20;99.90;;;;;;5036391;28;20072;-79
2022/05/13 06:35:04;;;;;;;12.52;2.10;;;14.20;99.90;;;;;;5035957;28;20022;-81
2022/05/13 06:37:30;;;;;;;10.07;1.90;;;14.20;99.90;;;;;;5037737;28;20030;-79
2022/05/13 06:39:56;;;;;;;9.88;1.73;;;14.20;99.90;;;;;;5040784;28;20022;-80
2022/05/13 06:42:22;;;;;;;13.43;1.90;;;14.20;99.90;;;;;;5028877;28;20053;-81
2022/05/13 06:44:48;;;;;;;9.90;2.08;;;14.30;99.90;;;;;;5036267;28;20018;-82
2022/05/13 06:47:13;;;;;;;11.68;1.80;;;14.30;99.90;;;;;;5036400;28;20050;-82
2022/05/13 06:49:39;;;;;;;9.40;2.13;;;14.30;99.90;;;;;;5034460;28;20041;-82
2022/05/13 06:52:05;;;;;;;12.50;1.95;;;14.40;99.90;;;;;;5036132;28;20029;-82
2022/05/13 06:54:31;;;;;;;8.50;1.60;;;14.50;99.90;;;;;;5034203;28;20065;-82
2022/05/13 06:56:56;;;;;;;13.82;1.70;;;14.50;99.90;;;;;;5035876;28;20030;-82
2022/05/13 06:59:22;;;;;;;8.00;1.73;;;14.60;99.90;;;;;;5035935;28;20022;-82
2022/05/13 07:01:48;;;;;;;8.98;1.65;;;14.60;99.90;;;;;;5035342;28;20026;-82
2022/05/13 07:04:14;;;;;;;11.20;1.80;;;14.60;99.90;;;;;;5036330;28;20030;-82
2022/05/13 07:06:40;;;;;;;8.40;1.60;;;14.70;99.90;;;;;;5019028;28;20025;-81
2022/05/13 07:09:06;;;;;;;10.35;1.60;;;14.80;99.90;;;;;;5036152;28;20030;-82
2022/05/13 07:11:32;;;;;;;9.10;1.77;;;14.80;99.90;;;;;;5036143;28;20041;-82
2022/05/13 07:13:58;;;;;;;9.05;1.85;;;14.90;99.90;;;;;;5035894;28;20025;-82
2022/05/13 07:16:23;;;;;;;10.10;1.77;;;14.90;99.90;;;;;;5036088;28;20088;-82
2022/05/13 07:18:50;;;;;;;10.30;1.73;;;15.00;99.90;;;;;;5037014;28;20040;-81
2022/05/13 07:21:16;;;;;;;7.25;1.45;;;15.00;99.90;;;;;;5043754;28;20014;-82
2022/05/13 07:23:41;;;;;;;11.07;1.92;;;15.00;99.90;;;;;;5059256;28;20168;-82
2022/05/13 07:26:07;;;;;;;10.98;1.70;;;15.10;99.90;;;;;;5059722;28;20049;-81
2022/05/13 07:28:33;;;;;;;7.47;1.58;;;15.10;99.90;;;;;;5059357;28;20093;-83
2022/05/13 07:31:00;;;;;;;10.82;1.92;;;15.10;99.90;;;;;;5059668;28;20067;-83
2022/05/13 07:33:28;;;;;;;8.98;1.70;;;15.10;99.90;;;;;;5058725;28;20025;-81
2022/05/13 07:35:54;;;;;;;13.48;1.98;;;15.20;99.90;;;;;;5059428;28;20028;-82
2022/05/13 07:38:21;;;;;;;12.15;2.15;;;15.20;99.90;;;;;;5058533;28;20033;-82
2022/05/13 07:43:31;;;;;;;12.70;1.70;;;15.40;99.90;;;;;;5059346;28;20078;-83
2022/05/13 07:45:56;;;;;;;7.53;1.63;;;15.30;99.90;;;;;;5041651;28;20025;-76
2022/05/13 07:48:22;;;;;;;9.75;2.17;;;15.50;99.90;;;;;;5033507;28;20061;-75
2022/05/13 07:50:47;;;;;;;9.02;1.88;;;15.50;99.90;;;;;;5032055;28;20025;-75
2022/05/13 07:53:13;;;;;;;8.55;1.80;;;15.60;99.90;;;;;;5033300;28;20370;-75
2022/05/13 07:55:38;;;;;;;8.00;1.70;;;15.70;99.90;;;;;;5032835;28;20500;-76
2022/05/13 07:58:04;;;;;;;10.27;1.92;;;15.60;99.90;;;;;;5033292;28;20575;-77
2022/05/13 08:00:32;;;;;;;11.35;1.90;;;15.60;99.90;;;;;;5033341;28;20405;-77
2022/05/13 08:03:03;;;;;;;11.52;1.73;;;15.60;99.90;;;;;;5033712;28;20025;-76
2022/05/13 08:05:33;;;;;;;10.15;1.85;;;15.70;99.90;;;;;;5033439;28;20033;-75
2022/05/13 08:08:00;;;;;;;8.18;1.52;;;15.70;99.90;;;;;;5033166;28;20025;-78
2022/05/13 08:10:25;;;;;;;6.32;1.50;;;15.80;99.90;;;;;;5032976;28;20021;-79
2022/05/13 08:12:51;;;;;;;12.35;2.15;;;15.80;99.90;;;;;;5031710;28;20025;-78
2022/05/13 08:15:17;;;;;;;9.32;1.75;;;16.00;99.90;;;;;;5033000;28;20384;-78
2022/05/13 08:17:42;;;;;;;11.32;1.67;;;16.00;99.90;;;;;;5032767;28;20111;-79
2022/05/13 08:20:08;;;;;;;10.57;1.85;;;16.10;99.90;;;;;;5031438;28;20021;-77
2022/05/13 08:22:34;;;;;;;9.55;1.80;;;16.20;99.90;;;;;;5033101;28;20497;-76
2022/05/13 08:25:01;;;;;;;13.27;2.10;;;16.20;99.90;;;;;;5032439;28;20173;-77
2022/05/13 08:27:26;;;;;;;8.18;1.88;;;16.40;99.90;;;;;;5032578;28;20122;-76
2022/05/13 08:29:52;;;;;;;13.10;1.98;;;16.50;99.90;;;;;;5031937;28;20091;-80
2022/05/13 08:32:17;;;;;;;8.23;1.70;;;16.60;99.90;;;;;;5024355;28;20018;-77
2022/05/13 08:34:43;;;;;;;6.55;1.73;;;16.60;99.90;;;;;;5038345;28;20413;-76
2022/05/13 08:37:08;;;;;;;10.50;1.85;;;16.70;99.90;;;;;;5028625;28;20061;-78
2022/05/13 08:39:34;;;;;;;7.15;1.80;;;16.70;99.90;;;;;;5019730;28;20022;-77
2022/05/13 08:42:35;;;;;;;8.88;1.92;;;16.90;99.90;;;;;;5022139;28;20043;-77
2022/05/13 08:45:02;;;;;;;8.57;1.77;;;16.90;99.90;;;;;;5015878;28;20022;-76
2022/05/13 08:47:55;;;;;;;10.23;2.10;;;16.90;99.90;;;;;;5012802;28;20404;-77
2022/05/13 08:50:20;;;;;;;8.90;1.80;;;16.90;99.90;;;;;;5014884;28;20040;-75
2022/05/13 08:53:08;;;;;;;12.98;1.90;;;16.90;99.90;;;;;;5022769;28;20386;-76
2022/05/13 08:55:50;;;;;;;8.57;1.70;;;17.10;99.90;;;;;;5029750;28;20035;-76
2022/05/13 08:58:27;;;;;;;11.20;2.10;;;17.30;99.90;;;;;;5033859;28;20025;-77
2022/05/13 09:00:59;;;;;;;9.77;2.10;;;17.40;99.90;;;;;;5032804;28;20025;-73
2022/05/13 09:03:30;;;;;;;13.23;2.13;;;17.50;99.90;;;;;;5019359;28;20069;-77
2022/05/13 09:06:02;;;;;;;11.65;2.03;;;17.60;99.90;;;;;;5041317;28;20029;-75
2022/05/13 09:08:28;;;;;;;4.95;1.70;;;17.60;99.90;;;;;;5037569;28;20057;-77
2022/05/13 09:11:12;;;;;;;14.00;2.13;;;17.60;99.90;;;;;;5035804;28;20029;-75
2022/05/13 09:13:59;;;;;;;9.93;2.33;;;17.60;99.90;;;;;;5033784;28;20752;-75
2022/05/13 09:16:50;;;;;;;12.02;2.20;;;17.40;99.90;;;;;;5039521;28;20020;-76
2022/05/13 09:19:39;;;;;;;8.65;1.70;;;17.30;99.90;;;;;;5041253;28;20100;-76
2022/05/13 09:22:09;;;;;;;10.80;2.22;;;17.30;99.90;;;;;;5034392;28;20040;-75
2022/05/13 09:24:35;;;;;;;10.68;2.10;;;17.30;99.90;;;;;;5040204;28;20064;-72
2022/05/13 09:27:01;;;;;;;8.43;1.67;;;17.30;99.90;;;;;;5027002;28;20030;-74
2022/05/13 09:29:41;;;;;;;8.38;1.92;;;17.20;99.90;;;;;;5012740;28;20042;-77
2022/05/13 09:32:13;;;;;;;8.75;2.03;;;17.20;99.90;;;;;;5013371;28;20026;-76
2022/05/13 09:34:46;;;;;;;9.48;2.30;;;17.10;99.90;;;;;;5012349;28;20034;-75
2022/05/13 09:37:20;;;;;;;10.18;2.10;;;17.00;99.90;;;;;;5011600;28;20041;-78
2022/05/13 09:39:48;;;;;;;10.88;2.28;;;17.00;99.90;;;;;;5025201;28;20033;-76
2022/05/13 09:42:26;;;;;;;10.75;2.20;;;16.90;99.90;;;;;;5031370;28;20021;-79
2022/05/13 09:45:09;;;;;;;10.43;1.80;;;16.90;99.90;;;;;;5032264;28;20025;-74
2022/05/13 09:47:35;;;;;;;13.07;2.30;;;16.80;99.90;;;;;;5031007;28;20397;-77
2022/05/13 09:50:02;;;;;;;9.65;2.08;;;16.80;99.90;;;;;;5032377;28;20033;-77
2022/05/13 09:52:36;;;;;;;9.55;2.00;;;16.70;99.90;;;;;;5032017;28;20025;-75
2022/05/13 09:55:38;;;;;;;7.70;2.53;;;16.80;99.90;;;;;;5031781;28;20443;-78
2022/05/13 09:58:27;;;;;;;8.32;2.00;;;17.10;99.90;;;;;;5017250;28;20797;-77
2022/05/13 10:01:00;;;;;;;10.15;2.05;;;17.30;99.90;;;;;;5011752;28;20041;-80
2022/05/13 10:03:36;;;;;;;9.18;2.15;;;17.40;99.90;;;;;;5012861;28;20135;-80
2022/05/13 10:06:15;;;;;;;17.65;2.80;;;17.60;99.90;;;;;;5010701;28;20461;-79
2022/05/13 10:13:57;;;;;;;11.73;2.22;;;17.80;99.90;;;;;;5008931;28;20030;-78
2022/05/13 10:14:32;;;;;;;7.80;2.00;;;18.00;99.90;;;;;;5008030;28;20141;-79
2022/05/13 10:17:04;;;;;;;12.48;2.40;;;18.10;99.90;;;;;;5008168;28;20486;-80
2022/05/13 10:19:34;;;;;;;8.35;1.80;;;18.30;99.90;;;;;;5008066;28;20050;-80
2022/05/13 10:22:07;;;;;;;9.77;1.98;;;18.40;98.90;;;;;;5008189;28;20285;-78
2022/05/13 10:24:54;;;;;;;12.25;2.03;;;18.50;98.20;;;;;;5008135;28;20525;-77
2022/05/13 10:27:44;;;;;;;10.13;2.17;;;18.50;98.10;;;;;;5007742;28;20045;-77
2022/05/13 10:30:15;;;;;;;9.57;2.00;;;18.70;98.20;;;;;;5007732;28;20113;-77
2022/05/13 10:33:37;;;;;;;8.57;2.08;;;18.80;96.80;;;;;;5022055;28;20047;-76
2022/05/13 10:36:05;;;;;;;13.38;2.25;;;18.80;95.50;;;;;;4999199;28;20482;-76
2022/05/13 10:38:30;;;;;;;12.90;2.17;;;18.80;95.90;;;;;;5007863;28;20037;-77
2022/05/13 10:41:09;;;;;;;8.38;1.73;;;18.90;95.90;;;;;;5007577;28;20033;-77
2022/05/13 10:43:56;;;;;;;12.68;2.20;;;19.00;96.40;;;;;;5007991;28;20030;-77
2022/05/13 10:46:33;;;;;;;4.28;1.60;;;19.10;94.80;;;;;;4991650;28;20088;-76
2022/05/13 10:48:58;;;;;;;9.43;1.90;;;18.90;94.20;;;;;;5007963;28;20034;-78
2022/05/13 10:51:34;;;;;;;9.10;2.15;;;18.90;94.50;;;;;;5007315;28;20034;-77
2022/05/13 10:54:10;;;;;;;11.32;1.80;;;18.90;94.10;;;;;;5023364;28;20033;-77
2022/05/13 10:57:00;;;;;;;6.97;1.50;;;19.00;94.00;;;;;;5031361;28;20021;-77
2022/05/13 11:00:00;;;;;;;9.38;1.65;;;19.20;93.40;;;;;;5031297;28;20030;-77
2022/05/13 11:02:53;;;;;;;6.53;1.73;;;19.40;92.90;;;;;;5031112;28;20029;-77
2022/05/13 11:05:43;;;;;;;9.45;1.70;;;19.40;92.10;;;;;;5031122;28;20534;-76
2022/05/13 11:08:42;;;;;;;8.15;1.83;;;19.40;92.10;;;;;;5031236;28;20138;-76
2022/05/13 11:11:42;;;;;;;10.43;1.88;;;19.50;92.90;;;;;;5045077;28;20045;-76
2022/05/13 11:14:45;;;;;;;16.77;2.50;;;19.60;93.60;;;;;;5035133;28;20061;-76
2022/05/13 11:17:45;;;;;;;8.02;2.28;;;19.60;92.50;;;;;;5058338;28;20472;-77
2022/05/13 11:20:34;;;;;;;13.10;2.40;;;19.40;92.50;;;;;;5057980;28;20025;-75
2022/05/13 11:23:35;;;;;;;10.15;1.70;;;19.30;92.20;;;;;;5038690;28;20071;-74
2022/05/13 11:26:20;;;;;;;7.82;1.92;;;19.30;92.40;;;;;;5036174;28;20116;-75
2022/05/13 11:29:02;;;;;;;6.18;1.92;;;19.50;93.00;;;;;;5035797;28;20047;-75
2022/05/13 11:31:37;;;;;;;8.75;1.75;;;19.60;91.50;;;;;;5036960;28;20079;-74
2022/05/13 11:34:33;;;;;;;11.30;1.90;;;19.50;91.20;;;;;;5036564;28;20531;-75
2022/05/13 11:37:08;;;;;;;12.80;2.10;;;19.50;91.40;;;;;;5036006;28;20029;-79
2022/05/13 11:39:51;;;;;;;5.53;1.73;;;19.40;91.80;;;;;;5040551;28;20051;-79
2022/05/13 11:42:33;;;;;;;8.32;2.08;;;19.30;92.20;;;;;;5038874;28;20032;-74
2022/05/13 11:45:29;;;;;;;7.72;1.80;;;19.40;91.80;;;;;;5038896;28;20060;-77
2022/05/13 11:48:14;;;;;;;8.15;1.58;;;19.50;92.20;;;;;;5038389;28;20621;-77
2022/05/13 11:50:39;;;;;;;12.02;2.00;;;19.60;91.80;;;;;;5038939;28;20436;-75
2022/05/13 11:53:05;;;;;;;8.50;2.00;;;19.60;91.70;;;;;;5038411;28;20029;-76
2022/05/13 11:55:47;;;;;;;12.35;2.28;;;19.80;91.70;;;;;;5035621;28;20032;-74
2022/05/13 11:58:44;;;;;;;11.50;1.92;;;19.90;91.60;;;;;;5037948;28;20076;-74
2022/05/13 12:01:10;;;;;;;9.27;1.88;;;19.90;91.40;;;;;;5038065;28;20030;-75
2022/05/13 12:03:37;;;;;;;8.30;1.90;;;19.90;91.10;;;;;;5036948;28;20052;-75
2022/05/13 12:06:10;;;;;;;8.20;1.90;;;20.00;90.80;;;;;;5035854;28;20018;-76
2022/05/13 12:08:44;;;;;;;8.93;1.90;;;20.00;90.80;;;;;;5037666;28;20091;-74
2022/05/13 12:11:09;;;;;;;7.70;1.88;;;20.10;90.40;;;;;;5035834;28;20390;-74
2022/05/13 12:14:39;;;;;;;15.60;2.45;;;20.20;89.10;;;;;;5037662;28;20017;-75
2022/05/13 12:17:41;;;;;;;8.32;1.67;;;20.10;87.50;;;;;;5015247;28;20069;-75
2022/05/13 12:20:19;;;;;;;10.75;2.30;;;20.20;88.40;;;;;;5014651;28;20045;-73
2022/05/13 12:23:25;;;;;;;13.00;2.30;;;20.10;84.70;;;;;;5014225;28;20526;-76
2022/05/13 12:26:04;;;;;;;12.57;2.05;;;20.00;86.00;;;;;;5006764;28;20038;-75
2022/05/13 12:28:38;;;;;;;7.20;1.80;;;19.90;85.40;;;;;;4997851;28;20588;-75
2022/05/13 12:31:22;;;;;;;8.30;2.10;;;19.90;85.30;;;;;;5015177;28;20037;-74
2022/05/13 12:37:33;;;;;;;11.90;2.10;;;19.90;83.50;;;;;;5014610;28;20025;-73
2022/05/13 12:39:51;;;;;;;7.47;1.85;;;19.70;82.90;;;;;;5016319;28;20206;-73
2022/05/13 12:42:35;;;;;;;9.57;2.03;;;19.70;83.00;;;;;;5016310;28;20038;-74
2022/05/13 12:45:01;;;;;;;8.68;1.70;;;19.70;82.60;;;;;;4997106;28;20465;-73
2022/05/13 12:47:30;;;;;;;9.63;1.92;;;19.70;81.70;;;;;;5022796;28;20063;-74
2022/05/13 12:50:19;;;;;;;7.82;2.13;;;19.70;82.70;;;;;;5029294;28;20322;-75
2022/05/13 12:52:45;;;;;;;8.50;1.77;;;19.70;82.90;;;;;;5038697;28;20032;-75
2022/05/13 12:55:24;;;;;;;6.03;1.70;;;19.80;83.50;;;;;;5028824;28;20028;-75
2022/05/13 12:58:00;;;;;;;6.43;1.52;;;19.70;82.50;;;;;;5028550;28;20065;-75
2022/05/13 13:00:35;;;;;;;10.60;2.10;;;19.60;81.80;;;;;;5019253;28;20057;-74
2022/05/13 13:03:06;;;;;;;10.75;2.25;;;19.50;81.60;;;;;;5012507;28;20481;-74
2022/05/13 13:05:36;;;;;;;8.80;1.85;;;19.50;81.30;;;;;;5013949;28;20474;-76
2022/05/13 13:08:14;;;;;;;10.07;1.92;;;19.40;82.30;;;;;;5034049;28;20025;-75
2022/05/13 13:10:57;;;;;;;9.27;1.88;;;19.40;81.80;;;;;;5050840;28;20041;-74
2022/05/13 13:13:41;;;;;;;5.63;1.60;;;19.40;81.50;;;;;;5051765;28;20033;-75
2022/05/13 13:16:19;;;;;;;7.45;2.00;;;19.50;79.10;;;;;;5044988;28;20018;-75
2022/05/13 13:18:45;;;;;;;9.50;1.70;;;19.50;78.00;;;;;;5031543;28;20420;-75
2022/05/13 13:21:14;;;;;;;9.15;1.98;;;19.60;78.20;;;;;;5032160;28;20112;-75
2022/05/13 13:23:42;;;;;;;8.20;1.95;;;19.60;78.30;;;;;;5029370;28;20029;-74
2022/05/13 13:26:11;;;;;;;8.65;1.90;;;19.60;76.60;;;;;;5032856;28;20211;-75